createdAt,value
2018-07-23T00:00:17.170Z,17.11
2018-07-23T00:01:17.413Z,17.11
2018-07-23T00:02:17.656Z,17.00
2018-07-23T00:03:17.899Z,17.15
2018-07-23T00:04:18.142Z,17.00
2018-07-23T00:05:18.384Z,16.96
2018-07-23T00:06:18.626Z,16.85
2018-07-23T00:07:18.872Z,16.76
2018-07-23T00:08:19.112Z,16.76
2018-07-23T00:09:19.355Z,16.64
2018-07-23T00:10:19.599Z,16.58
2018-07-23T00:11:19.841Z,16.48
2018-07-23T00:12:20.084Z,16.42
2018-07-23T00:13:20.326Z,16.35
2018-07-23T00:14:20.570Z,16.25
2018-07-23T00:15:20.815Z,16.33
2018-07-23T00:16:21.059Z,16.30
2018-07-23T00:17:21.303Z,16.28
2018-07-23T00:18:21.546Z,16.23
2018-07-23T00:19:21.788Z,16.27
2018-07-23T00:20:22.032Z,16.30
2018-07-23T00:21:22.276Z,16.21
2018-07-23T00:22:22.521Z,16.27
2018-07-23T00:23:22.765Z,16.15
2018-07-23T00:24:23.008Z,16.17
2018-07-23T00:25:23.252Z,16.25
2018-07-23T00:26:23.494Z,16.30
2018-07-23T00:27:23.737Z,16.50
2018-07-23T00:28:23.978Z,16.58
2018-07-23T00:29:24.222Z,16.71
2018-07-23T00:30:24.464Z,16.68
2018-07-23T00:31:24.705Z,16.70
2018-07-23T00:32:24.949Z,16.76
2018-07-23T00:33:25.192Z,16.66
2018-07-23T00:34:25.435Z,16.66
2018-07-23T00:35:25.678Z,16.58
2018-07-23T00:36:25.923Z,16.67
2018-07-23T00:37:26.166Z,16.61
2018-07-23T00:38:26.409Z,16.60
2018-07-23T00:39:26.653Z,16.66
2018-07-23T00:40:26.897Z,16.66
2018-07-23T00:41:27.140Z,16.56
2018-07-23T00:42:27.383Z,16.56
2018-07-23T00:43:27.626Z,16.48
2018-07-23T00:44:27.868Z,16.46
2018-07-23T00:45:28.112Z,16.39
2018-07-23T00:46:28.356Z,16.35
2018-07-23T00:47:28.597Z,16.38
2018-07-23T00:48:28.838Z,16.33
2018-07-23T00:49:29.079Z,16.34
2018-07-23T00:50:29.322Z,16.33
2018-07-23T00:51:29.568Z,16.24
2018-07-23T00:52:29.812Z,16.24
2018-07-23T00:53:30.049Z,16.34
2018-07-23T00:54:30.291Z,16.31
2018-07-23T00:55:30.530Z,16.33
2018-07-23T00:56:30.779Z,16.24
2018-07-23T00:57:31.016Z,16.28
2018-07-23T00:58:31.258Z,16.28
2018-07-23T00:59:31.501Z,16.25
2018-07-23T01:00:31.744Z,16.27
2018-07-23T01:01:31.986Z,16.20
2018-07-23T01:02:32.228Z,16.23
2018-07-23T01:03:32.471Z,16.11
2018-07-23T01:04:32.713Z,16.09
2018-07-23T01:05:32.954Z,15.97
2018-07-23T01:06:33.197Z,15.93
2018-07-23T01:07:33.438Z,15.94
2018-07-23T01:08:33.682Z,15.86
2018-07-23T01:09:33.922Z,15.94
2018-07-23T01:10:34.166Z,15.78
2018-07-23T01:11:34.408Z,15.80
2018-07-23T01:12:34.648Z,15.82
2018-07-23T01:13:34.892Z,15.76
2018-07-23T01:14:35.133Z,15.75
2018-07-23T01:15:35.375Z,15.87
2018-07-23T01:16:35.616Z,15.76
2018-07-23T01:17:35.858Z,15.68
2018-07-23T01:18:36.101Z,15.71
2018-07-23T01:19:36.344Z,15.74
2018-07-23T01:20:36.572Z,15.83
2018-07-23T01:21:36.833Z,15.75
2018-07-23T01:22:37.076Z,15.75
2018-07-23T01:23:37.318Z,15.71
2018-07-23T01:24:37.559Z,15.72
2018-07-23T01:25:37.799Z,15.51
2018-07-23T01:26:38.043Z,15.46
2018-07-23T01:27:38.282Z,15.50
2018-07-23T01:28:38.528Z,15.50
2018-07-23T01:29:38.767Z,15.53
2018-07-23T01:30:39.008Z,15.56
2018-07-23T01:31:39.252Z,15.47
2018-07-23T01:32:39.494Z,15.47
2018-07-23T01:33:39.736Z,15.53
2018-07-23T01:34:39.978Z,15.50
2018-07-23T01:35:40.218Z,15.53
2018-07-23T01:36:40.460Z,15.47
2018-07-23T01:37:40.703Z,15.38
2018-07-23T01:38:40.943Z,15.29
2018-07-23T01:39:41.185Z,15.23
2018-07-23T01:40:41.425Z,15.20
2018-07-23T01:41:41.667Z,15.36
2018-07-23T01:42:41.911Z,15.43
2018-07-23T01:43:42.154Z,15.67
2018-07-23T01:44:42.394Z,15.76
2018-07-23T01:45:42.636Z,15.69
2018-07-23T01:46:42.879Z,15.64
2018-07-23T01:47:43.122Z,15.65
2018-07-23T01:48:43.364Z,15.72
2018-07-23T01:49:43.608Z,15.82
2018-07-23T01:50:43.849Z,15.89
2018-07-23T01:51:44.091Z,15.80
2018-07-23T01:52:44.336Z,15.89
2018-07-23T01:53:44.576Z,15.86
2018-07-23T01:54:44.817Z,15.90
2018-07-23T01:55:45.060Z,15.92
2018-07-23T01:56:45.301Z,15.92
2018-07-23T01:57:45.543Z,15.89
2018-07-23T01:58:45.785Z,15.80
2018-07-23T01:59:46.026Z,15.76
2018-07-23T02:00:46.267Z,15.76
2018-07-23T02:01:46.511Z,15.71
2018-07-23T02:02:46.752Z,15.74
2018-07-23T02:03:46.993Z,15.72
2018-07-23T02:04:47.234Z,15.68
2018-07-23T02:05:47.477Z,15.71
2018-07-23T02:06:47.725Z,15.67
2018-07-23T02:07:47.964Z,15.59
2018-07-23T02:08:48.202Z,15.65
2018-07-23T02:09:48.444Z,15.67
2018-07-23T02:10:48.686Z,15.65
2018-07-23T02:11:48.932Z,15.54
2018-07-23T02:12:49.168Z,15.50
2018-07-23T02:13:49.410Z,15.54
2018-07-23T02:14:49.652Z,15.41
2018-07-23T02:15:49.895Z,15.36
2018-07-23T02:16:50.137Z,15.44
2018-07-23T02:17:50.399Z,15.43
2018-07-23T02:18:50.623Z,15.32
2018-07-23T02:19:50.863Z,15.25
2018-07-23T02:20:51.103Z,15.19
2018-07-23T02:21:51.345Z,15.21
2018-07-23T02:22:51.586Z,15.21
2018-07-23T02:23:51.825Z,15.31
2018-07-23T02:24:52.066Z,15.16
2018-07-23T02:25:52.307Z,15.34
2018-07-23T02:26:52.550Z,15.32
2018-07-23T02:27:52.798Z,15.38
2018-07-23T02:28:53.033Z,15.28
2018-07-23T02:29:53.274Z,15.14
2018-07-23T02:30:53.516Z,15.19
2018-07-23T02:31:53.759Z,15.16
2018-07-23T02:32:53.998Z,15.16
2018-07-23T02:33:54.239Z,15.09
2018-07-23T02:34:54.480Z,15.10
2018-07-23T02:35:54.722Z,15.02
2018-07-23T02:36:54.962Z,15.03
2018-07-23T02:37:55.205Z,15.10
2018-07-23T02:38:55.475Z,15.13
2018-07-23T02:39:55.689Z,15.07
2018-07-23T02:40:55.926Z,15.03
2018-07-23T02:41:56.167Z,15.03
2018-07-23T02:42:56.408Z,14.96
2018-07-23T02:43:56.649Z,15.09
2018-07-23T02:44:56.891Z,14.96
2018-07-23T02:45:57.133Z,14.99
2018-07-23T02:46:57.372Z,14.91
2018-07-23T02:47:57.616Z,14.91
2018-07-23T02:48:57.856Z,14.86
2018-07-23T02:49:58.098Z,14.78
2018-07-23T02:50:58.337Z,14.84
2018-07-23T02:51:58.580Z,14.78
2018-07-23T02:52:58.822Z,14.78
2018-07-23T02:53:59.063Z,14.69
2018-07-23T02:54:59.305Z,14.77
2018-07-23T02:55:59.546Z,14.83
2018-07-23T02:56:59.788Z,14.83
2018-07-23T02:58:00.032Z,14.88
2018-07-23T02:59:00.272Z,14.89
2018-07-23T03:00:00.519Z,14.88
2018-07-23T03:01:00.758Z,14.96
2018-07-23T03:02:01.000Z,14.92
2018-07-23T03:03:01.243Z,14.89
2018-07-23T03:04:01.484Z,14.98
2018-07-23T03:05:01.724Z,15.01
2018-07-23T03:06:01.966Z,15.03
2018-07-23T03:07:02.207Z,15.02
2018-07-23T03:08:02.448Z,15.06
2018-07-23T03:09:02.692Z,14.99
2018-07-23T03:10:02.939Z,14.94
2018-07-23T03:11:03.174Z,14.94
2018-07-23T03:12:03.416Z,14.88
2018-07-23T03:13:03.659Z,14.88
2018-07-23T03:14:03.901Z,14.89
2018-07-23T03:15:04.142Z,14.88
2018-07-23T03:16:04.383Z,14.77
2018-07-23T03:17:04.623Z,14.94
2018-07-23T03:18:04.866Z,14.91
2018-07-23T03:19:05.109Z,14.91
2018-07-23T03:20:05.349Z,14.96
2018-07-23T03:21:05.592Z,14.94
2018-07-23T03:22:05.835Z,14.96
2018-07-23T03:23:06.081Z,14.83
2018-07-23T03:24:06.320Z,15.02
2018-07-23T03:25:06.565Z,14.99
2018-07-23T03:26:06.808Z,15.03
2018-07-23T03:27:07.046Z,15.03
2018-07-23T03:28:07.287Z,15.03
2018-07-23T03:29:07.531Z,15.07
2018-07-23T03:30:07.772Z,15.09
2018-07-23T03:31:08.014Z,15.10
2018-07-23T03:32:08.257Z,15.13
2018-07-23T03:33:08.498Z,15.07
2018-07-23T03:34:08.742Z,15.17
2018-07-23T03:35:08.984Z,15.16
2018-07-23T03:36:09.226Z,15.14
2018-07-23T03:37:09.468Z,15.21
2018-07-23T03:38:09.708Z,15.27
2018-07-23T03:39:09.959Z,15.27
2018-07-23T03:40:10.193Z,15.31
2018-07-23T03:41:10.435Z,15.21
2018-07-23T03:42:10.681Z,15.25
2018-07-23T03:43:10.920Z,15.27
2018-07-23T03:44:11.162Z,15.28
2018-07-23T03:45:11.404Z,15.31
2018-07-23T03:46:11.646Z,15.34
2018-07-23T03:47:11.888Z,15.20
2018-07-23T03:48:12.130Z,15.29
2018-07-23T03:49:12.372Z,15.17
2018-07-23T03:50:12.615Z,15.31
2018-07-23T03:51:12.857Z,15.29
2018-07-23T03:52:13.105Z,15.14
2018-07-23T03:53:13.340Z,14.88
2018-07-23T03:54:13.583Z,14.86
2018-07-23T03:55:13.824Z,14.84
2018-07-23T03:56:14.068Z,14.89
2018-07-23T03:57:14.306Z,14.99
2018-07-23T03:58:14.550Z,15.09
2018-07-23T03:59:14.791Z,15.10
2018-07-23T04:00:15.033Z,15.13
2018-07-23T04:01:15.274Z,15.11
2018-07-23T04:02:15.515Z,15.03
2018-07-23T04:03:15.757Z,15.07
2018-07-23T04:04:15.997Z,15.10
2018-07-23T04:05:16.245Z,15.03
2018-07-23T04:06:16.481Z,15.02
2018-07-23T04:07:16.722Z,15.09
2018-07-23T04:08:16.965Z,15.03
2018-07-23T04:09:17.205Z,15.03
2018-07-23T04:10:17.448Z,14.98
2018-07-23T04:11:17.691Z,15.03
2018-07-23T04:12:17.932Z,15.01
2018-07-23T04:13:18.175Z,15.02
2018-07-23T04:14:18.414Z,15.07
2018-07-23T04:15:18.657Z,15.13
2018-07-23T04:16:18.902Z,15.13
2018-07-23T04:17:19.141Z,15.28
2018-07-23T04:18:19.383Z,15.21
2018-07-23T04:19:19.623Z,15.36
2018-07-23T04:20:19.865Z,15.43
2018-07-23T04:21:20.107Z,15.38
2018-07-23T04:22:20.348Z,15.39
2018-07-23T04:23:20.590Z,15.50
2018-07-23T04:24:20.832Z,15.51
2018-07-23T04:25:21.078Z,15.54
2018-07-23T04:26:21.321Z,15.50
2018-07-23T04:27:21.562Z,15.49
2018-07-23T04:28:21.804Z,15.69
2018-07-23T04:29:22.047Z,15.72
2018-07-23T04:30:22.288Z,15.69
2018-07-23T04:31:22.528Z,15.72
2018-07-23T04:32:22.774Z,15.75
2018-07-23T04:33:23.013Z,15.75
2018-07-23T04:34:23.257Z,15.82
2018-07-23T04:35:23.495Z,15.83
2018-07-23T04:36:23.739Z,15.92
2018-07-23T04:37:23.981Z,15.94
2018-07-23T04:38:24.223Z,16.02
2018-07-23T04:39:24.467Z,16.05
2018-07-23T04:40:24.710Z,16.15
2018-07-23T04:41:24.951Z,16.17
2018-07-23T04:42:25.226Z,16.30
2018-07-23T04:43:25.436Z,16.34
2018-07-23T04:44:25.678Z,16.41
2018-07-23T04:45:25.921Z,16.31
2018-07-23T04:46:26.165Z,16.34
2018-07-23T04:47:26.405Z,16.41
2018-07-23T04:48:26.649Z,16.46
2018-07-23T04:49:26.898Z,16.53
2018-07-23T04:50:27.132Z,16.49
2018-07-23T04:51:27.374Z,16.56
2018-07-23T04:52:27.617Z,16.56
2018-07-23T04:53:27.860Z,16.61
2018-07-23T04:54:28.104Z,16.42
2018-07-23T04:55:28.345Z,16.33
2018-07-23T04:56:28.588Z,16.39
2018-07-23T04:57:28.833Z,16.35
2018-07-23T04:58:29.077Z,16.31
2018-07-23T04:59:29.320Z,16.34
2018-07-23T05:00:29.563Z,16.34
2018-07-23T05:01:29.805Z,16.35
2018-07-23T05:02:30.047Z,16.53
2018-07-23T05:03:30.291Z,16.49
2018-07-23T05:04:30.531Z,16.57
2018-07-23T05:05:30.772Z,16.61
2018-07-23T05:06:31.017Z,16.67
2018-07-23T05:07:31.264Z,16.71
2018-07-23T05:08:31.521Z,16.79
2018-07-23T05:09:31.743Z,16.93
2018-07-23T05:10:31.985Z,17.01
2018-07-23T05:11:32.228Z,17.15
2018-07-23T05:12:32.472Z,17.26
2018-07-23T05:13:32.714Z,17.37
2018-07-23T05:14:32.957Z,17.43
2018-07-23T05:15:33.200Z,17.52
2018-07-23T05:16:33.441Z,17.58
2018-07-23T05:17:33.684Z,17.62
2018-07-23T05:18:33.928Z,17.63
2018-07-23T05:19:34.171Z,17.74
2018-07-23T05:20:34.414Z,17.70
2018-07-23T05:21:34.660Z,17.77
2018-07-23T05:22:34.900Z,17.72
2018-07-23T05:23:35.142Z,17.87
2018-07-23T05:24:35.468Z,17.75
2018-07-23T05:25:35.635Z,17.82
2018-07-23T05:26:35.871Z,17.96
2018-07-23T05:27:36.116Z,18.05
2018-07-23T05:28:36.360Z,18.20
2018-07-23T05:29:36.605Z,18.25
2018-07-23T05:30:36.847Z,18.33
2018-07-23T05:31:37.113Z,18.45
2018-07-23T05:32:37.337Z,18.50
2018-07-23T05:33:37.580Z,18.55
2018-07-23T05:34:37.825Z,18.67
2018-07-23T05:35:38.068Z,18.70
2018-07-23T05:36:38.313Z,18.73
2018-07-23T05:37:38.557Z,18.84
2018-07-23T05:38:38.882Z,18.84
2018-07-23T05:39:39.045Z,18.91
2018-07-23T05:40:39.289Z,19.02
2018-07-23T05:41:39.535Z,19.10
2018-07-23T05:42:39.776Z,19.19
2018-07-23T05:43:40.021Z,19.23
2018-07-23T05:44:40.266Z,19.28
2018-07-23T05:45:40.509Z,19.37
2018-07-23T05:46:40.753Z,19.39
2018-07-23T05:47:40.997Z,19.43
2018-07-23T05:48:41.241Z,19.47
2018-07-23T05:49:41.486Z,19.48
2018-07-23T05:50:41.731Z,19.48
2018-07-23T05:51:41.973Z,19.62
2018-07-23T05:52:42.220Z,19.66
2018-07-23T05:53:42.466Z,19.63
2018-07-23T05:54:42.710Z,19.65
2018-07-23T05:55:42.956Z,19.83
2018-07-23T05:56:43.200Z,19.87
2018-07-23T05:57:43.496Z,19.84
2018-07-23T05:58:43.694Z,19.91
2018-07-23T05:59:43.936Z,19.95
2018-07-23T06:00:44.182Z,19.81
2018-07-23T06:01:44.414Z,19.98
2018-07-23T06:02:44.657Z,19.99
2018-07-23T06:03:44.938Z,20.02
2018-07-23T06:04:45.143Z,20.18
2018-07-23T06:05:45.386Z,20.26
2018-07-23T06:06:45.672Z,20.35
2018-07-23T06:07:45.876Z,20.38
2018-07-23T06:08:46.125Z,20.51
2018-07-23T06:09:46.366Z,20.58
2018-07-23T06:10:46.615Z,20.61
2018-07-23T06:11:46.862Z,20.62
2018-07-23T06:12:47.103Z,20.69
2018-07-23T06:13:47.348Z,20.70
2018-07-23T06:14:47.594Z,20.70
2018-07-23T06:15:47.836Z,20.61
2018-07-23T06:16:48.082Z,20.76
2018-07-23T06:17:48.328Z,20.73
2018-07-23T06:18:48.574Z,20.82
2018-07-23T06:19:48.832Z,20.72
2018-07-23T06:20:49.068Z,20.69
2018-07-23T06:21:49.311Z,20.66
2018-07-23T06:22:49.558Z,20.69
2018-07-23T06:23:49.802Z,20.73
2018-07-23T06:24:50.049Z,20.74
2018-07-23T06:25:50.319Z,20.72
2018-07-23T06:26:50.541Z,20.80
2018-07-23T06:27:50.788Z,20.92
2018-07-23T06:28:51.031Z,21.04
2018-07-23T06:29:51.280Z,21.22
2018-07-23T06:30:51.524Z,21.35
2018-07-23T06:31:51.773Z,21.42
2018-07-23T06:32:52.015Z,21.46
2018-07-23T06:33:52.292Z,21.53
2018-07-23T06:34:52.505Z,21.62
2018-07-23T06:35:52.754Z,21.79
2018-07-23T06:36:52.998Z,21.83
2018-07-23T06:37:53.247Z,21.71
2018-07-23T06:38:53.490Z,21.72
2018-07-23T06:39:53.736Z,21.71
2018-07-23T06:40:54.012Z,21.71
2018-07-23T06:41:54.274Z,21.83
2018-07-23T06:42:54.531Z,21.79
2018-07-23T06:43:54.777Z,21.80
2018-07-23T06:44:55.023Z,21.83
2018-07-23T06:45:55.264Z,21.83
2018-07-23T06:46:55.511Z,22.07
2018-07-23T06:47:55.759Z,22.25
2018-07-23T06:48:56.007Z,22.36
2018-07-23T06:49:56.250Z,22.40
2018-07-23T06:50:56.491Z,22.51
2018-07-23T06:51:56.737Z,22.70
2018-07-23T06:52:56.984Z,22.72
2018-07-23T06:53:57.256Z,22.77
2018-07-23T06:54:57.477Z,22.98
2018-07-23T06:55:57.727Z,22.88
2018-07-23T06:56:57.964Z,22.85
2018-07-23T06:57:58.211Z,22.91
2018-07-23T06:58:58.463Z,23.07
2018-07-23T06:59:58.711Z,23.20
2018-07-23T07:00:58.959Z,23.25
2018-07-23T07:01:59.205Z,23.38
2018-07-23T07:02:59.452Z,23.50
2018-07-23T07:03:59.698Z,23.79
2018-07-23T07:04:59.947Z,23.76
2018-07-23T07:06:00.192Z,23.76
2018-07-23T07:07:00.438Z,23.87
2018-07-23T07:08:00.686Z,23.85
2018-07-23T07:09:00.933Z,23.88
2018-07-23T07:10:01.179Z,24.13
2018-07-23T07:11:01.521Z,24.06
2018-07-23T07:12:01.677Z,24.24
2018-07-23T07:13:01.925Z,24.24
2018-07-23T07:14:02.173Z,24.37
2018-07-23T07:15:02.422Z,24.37
2018-07-23T07:16:02.669Z,24.49
2018-07-23T07:17:02.919Z,24.98
2018-07-23T07:18:03.165Z,25.05
2018-07-23T07:19:03.413Z,25.43
2018-07-23T07:20:03.662Z,26.02
2018-07-23T07:21:03.909Z,26.50
2018-07-23T07:22:04.162Z,26.63
2018-07-23T07:23:04.406Z,27.06
2018-07-23T07:24:04.655Z,27.54
2018-07-23T07:25:04.903Z,27.87
2018-07-23T07:26:05.153Z,28.25
2018-07-23T07:27:05.401Z,28.67
2018-07-23T07:28:05.651Z,28.95
2018-07-23T07:29:05.904Z,29.21
2018-07-23T07:30:06.150Z,29.42
2018-07-23T07:31:06.397Z,29.63
2018-07-23T07:32:06.648Z,29.41
2018-07-23T07:33:06.897Z,29.71
2018-07-23T07:34:07.144Z,29.90
2018-07-23T07:35:07.392Z,29.71
2018-07-23T07:36:07.642Z,29.57
2018-07-23T07:37:07.889Z,29.73
2018-07-23T07:38:08.169Z,29.45
2018-07-23T07:39:08.390Z,29.58
2018-07-23T07:40:08.639Z,29.45
2018-07-23T07:41:08.888Z,29.82
2018-07-23T07:42:09.139Z,29.98
2018-07-23T07:43:09.390Z,30.00
2018-07-23T07:44:09.641Z,29.86
2018-07-23T07:45:09.895Z,29.85
2018-07-23T07:46:10.141Z,30.31
2018-07-23T07:47:10.391Z,30.67
2018-07-23T07:48:10.643Z,30.70
2018-07-23T07:49:10.896Z,30.95
2018-07-23T07:50:11.149Z,31.12
2018-07-23T07:51:11.401Z,31.31
2018-07-23T07:52:11.652Z,30.92
2018-07-23T07:53:11.902Z,30.43
2018-07-23T07:54:12.155Z,30.29
2018-07-23T07:55:12.406Z,30.84
2018-07-23T07:56:12.662Z,30.88
2018-07-23T07:57:12.910Z,31.13
2018-07-23T07:58:13.162Z,31.29
2018-07-23T07:59:13.454Z,31.39
2018-07-23T08:00:13.671Z,31.76
2018-07-23T08:01:13.920Z,32.04
2018-07-23T08:02:14.172Z,32.28
2018-07-23T08:03:14.427Z,32.57
2018-07-23T08:04:14.681Z,32.70
2018-07-23T08:05:14.933Z,32.84
2018-07-23T08:06:15.187Z,32.97
2018-07-23T08:07:15.511Z,32.67
2018-07-23T08:08:15.694Z,32.85
2018-07-23T08:09:15.951Z,33.18
2018-07-23T08:10:16.204Z,33.23
2018-07-23T08:11:16.458Z,33.28
2018-07-23T08:12:16.712Z,33.61
2018-07-23T08:13:16.968Z,33.39
2018-07-23T08:14:17.220Z,33.44
2018-07-23T08:15:17.474Z,33.76
2018-07-23T08:16:17.729Z,33.91
2018-07-23T08:17:17.991Z,33.79
2018-07-23T08:18:18.239Z,33.63
2018-07-23T08:19:18.492Z,33.51
2018-07-23T08:20:18.746Z,33.81
2018-07-23T08:21:18.999Z,33.51
2018-07-23T08:22:19.253Z,32.72
2018-07-23T08:23:19.505Z,31.25
2018-07-23T08:24:19.761Z,30.35
2018-07-23T08:25:20.015Z,30.51
2018-07-23T08:26:20.268Z,30.82
2018-07-23T08:27:20.523Z,31.39
2018-07-23T08:28:20.778Z,32.06
2018-07-23T08:29:21.035Z,32.74
2018-07-23T08:30:21.294Z,33.29
2018-07-23T08:31:21.548Z,33.28
2018-07-23T08:32:21.874Z,33.26
2018-07-23T08:33:22.060Z,33.56
2018-07-23T08:34:22.313Z,34.00
2018-07-23T08:35:22.568Z,33.94
2018-07-23T08:36:22.821Z,33.50
2018-07-23T08:37:23.074Z,34.15
2018-07-23T08:38:23.330Z,34.62
2018-07-23T08:39:23.585Z,34.43
2018-07-23T08:40:23.841Z,33.69
2018-07-23T08:41:24.096Z,33.71
2018-07-23T08:42:24.354Z,33.95
2018-07-23T08:43:24.605Z,34.34
2018-07-23T08:44:24.860Z,33.72
2018-07-23T08:45:25.116Z,33.21
2018-07-23T08:46:25.371Z,32.22
2018-07-23T08:47:25.623Z,31.91
2018-07-23T08:48:25.881Z,32.01
2018-07-23T08:49:26.138Z,31.73
2018-07-23T08:50:26.389Z,32.01
2018-07-23T08:51:26.702Z,31.32
2018-07-23T08:52:26.902Z,30.01
2018-07-23T08:53:27.158Z,29.02
2018-07-23T08:54:27.418Z,28.55
2018-07-23T08:55:27.668Z,28.31
2018-07-23T08:56:27.922Z,28.29
2018-07-23T08:57:28.186Z,30.08
2018-07-23T08:58:28.430Z,31.50
2018-07-23T08:59:28.673Z,32.35
2018-07-23T09:00:28.937Z,33.01
2018-07-23T09:01:29.195Z,33.37
2018-07-23T09:02:29.447Z,33.51
2018-07-23T09:03:29.704Z,34.00
2018-07-23T09:04:29.956Z,33.76
2018-07-23T09:05:30.211Z,33.60
2018-07-23T09:06:30.463Z,34.31
2018-07-23T09:07:30.719Z,35.03
2018-07-23T09:08:31.026Z,35.44
2018-07-23T09:09:31.227Z,35.34
2018-07-23T09:10:31.481Z,35.59
2018-07-23T09:11:31.737Z,35.33
2018-07-23T09:12:31.991Z,34.72
2018-07-23T09:13:32.246Z,35.25
2018-07-23T09:14:32.502Z,34.89
2018-07-23T09:15:32.757Z,34.91
2018-07-23T09:16:33.011Z,35.52
2018-07-23T09:17:33.265Z,35.70
2018-07-23T09:18:33.520Z,35.97
2018-07-23T09:19:33.776Z,35.33
2018-07-23T09:20:34.031Z,35.68
2018-07-23T09:21:34.287Z,34.92
2018-07-23T09:22:34.543Z,34.61
2018-07-23T09:23:34.802Z,35.26
2018-07-23T09:24:35.052Z,34.77
2018-07-23T09:25:35.309Z,34.54
2018-07-23T09:26:35.568Z,34.42
2018-07-23T09:27:35.821Z,34.58
2018-07-23T09:28:36.074Z,35.52
2018-07-23T09:29:36.331Z,35.04
2018-07-23T09:30:36.592Z,35.90
2018-07-23T09:31:36.843Z,36.53
2018-07-23T09:32:37.101Z,37.10
2018-07-23T09:33:37.362Z,35.48
2018-07-23T09:34:37.615Z,35.48
2018-07-23T09:35:37.873Z,34.16
2018-07-23T09:36:38.130Z,32.65
2018-07-23T09:37:38.387Z,31.88
2018-07-23T09:38:38.644Z,31.57
2018-07-23T09:39:38.891Z,31.46
2018-07-23T09:40:39.146Z,32.07
2018-07-23T09:41:39.401Z,32.79
2018-07-23T09:42:39.656Z,34.02
2018-07-23T09:43:39.912Z,34.92
2018-07-23T09:44:40.168Z,34.61
2018-07-23T09:45:40.470Z,35.10
2018-07-23T09:46:40.684Z,35.02
2018-07-23T09:47:40.937Z,35.15
2018-07-23T09:48:41.191Z,35.75
2018-07-23T09:49:41.447Z,36.00
2018-07-23T09:50:41.704Z,36.90
2018-07-23T09:51:42.022Z,37.31
2018-07-23T09:52:42.253Z,36.16
2018-07-23T09:53:42.505Z,35.02
2018-07-23T09:54:42.762Z,33.35
2018-07-23T09:55:43.019Z,31.96
2018-07-23T09:56:43.276Z,32.28
2018-07-23T09:57:43.530Z,33.44
2018-07-23T09:58:43.787Z,34.10
2018-07-23T09:59:44.043Z,34.84
2018-07-23T10:00:44.297Z,34.43
2018-07-23T10:01:44.554Z,34.37
2018-07-23T10:02:44.811Z,34.65
2018-07-23T10:03:45.068Z,33.90
2018-07-23T10:04:45.324Z,34.80
2018-07-23T10:05:45.579Z,35.66
2018-07-23T10:06:45.834Z,36.37
2018-07-23T10:07:46.092Z,35.97
2018-07-23T10:08:46.347Z,35.41
2018-07-23T10:09:46.600Z,34.09
2018-07-23T10:10:46.863Z,32.38
2018-07-23T10:11:47.129Z,31.69
2018-07-23T10:12:47.384Z,31.41
2018-07-23T10:13:47.641Z,33.15
2018-07-23T10:14:47.897Z,34.35
2018-07-23T10:15:48.156Z,34.73
2018-07-23T10:16:48.409Z,33.42
2018-07-23T10:17:48.668Z,32.21
2018-07-23T10:18:48.921Z,31.96
2018-07-23T10:19:49.177Z,32.03
2018-07-23T10:20:49.434Z,32.15
2018-07-23T10:21:49.687Z,34.03
2018-07-23T10:22:49.947Z,35.37
2018-07-23T10:23:50.197Z,34.77
2018-07-23T10:24:50.452Z,34.15
2018-07-23T10:25:50.710Z,34.16
2018-07-23T10:26:50.965Z,35.07
2018-07-23T10:27:51.221Z,34.77
2018-07-23T10:28:51.475Z,34.81
2018-07-23T10:29:51.734Z,35.60
2018-07-23T10:30:51.989Z,35.41
2018-07-23T10:31:52.246Z,36.09
2018-07-23T10:32:52.501Z,36.85
2018-07-23T10:33:52.762Z,36.98
2018-07-23T10:34:53.014Z,37.66
2018-07-23T10:35:53.271Z,36.90
2018-07-23T10:36:53.530Z,35.96
2018-07-23T10:37:53.794Z,35.21
2018-07-23T10:38:54.040Z,33.54
2018-07-23T10:39:54.297Z,34.03
2018-07-23T10:40:54.559Z,35.33
2018-07-23T10:41:54.817Z,35.99
2018-07-23T10:42:55.070Z,36.28
2018-07-23T10:43:55.329Z,36.54
2018-07-23T10:44:55.585Z,36.99
2018-07-23T10:45:55.844Z,35.81
2018-07-23T10:46:56.103Z,34.89
2018-07-23T10:47:56.365Z,34.66
2018-07-23T10:48:56.618Z,34.85
2018-07-23T10:49:56.876Z,34.17
2018-07-23T10:50:57.147Z,33.76
2018-07-23T10:51:57.390Z,33.26
2018-07-23T10:52:57.647Z,33.00
2018-07-23T10:53:57.904Z,32.21
2018-07-23T10:54:58.158Z,31.76
2018-07-23T10:55:58.416Z,31.50
2018-07-23T10:56:58.674Z,31.35
2018-07-23T10:57:58.930Z,32.06
2018-07-23T10:58:59.188Z,32.15
2018-07-23T10:59:59.443Z,32.06
2018-07-23T11:00:59.698Z,32.04
2018-07-23T11:01:59.954Z,31.57
2018-07-23T11:03:00.210Z,31.36
2018-07-23T11:04:00.466Z,33.03
2018-07-23T11:05:00.722Z,34.49
2018-07-23T11:06:00.979Z,35.55
2018-07-23T11:07:01.233Z,36.16
2018-07-23T11:08:01.488Z,36.60
2018-07-23T11:09:01.743Z,37.32
2018-07-23T11:10:01.998Z,37.64
2018-07-23T11:11:02.255Z,37.12
2018-07-23T11:12:02.511Z,36.56
2018-07-23T11:13:02.767Z,36.66
2018-07-23T11:14:03.022Z,35.77
2018-07-23T11:15:03.279Z,35.53
2018-07-23T11:16:03.534Z,35.77
2018-07-23T11:17:03.789Z,35.89
2018-07-23T11:18:04.047Z,36.84
2018-07-23T11:19:04.304Z,37.18
2018-07-23T11:20:04.562Z,36.66
2018-07-23T11:21:04.921Z,36.64
2018-07-23T11:22:05.082Z,36.95
2018-07-23T11:23:05.335Z,37.29
2018-07-23T11:24:05.655Z,37.56
2018-07-23T11:25:38.415Z,36.78
2018-07-23T11:26:06.107Z,35.18
2018-07-23T11:27:06.362Z,36.07
2018-07-23T11:28:06.621Z,36.76
2018-07-23T11:29:06.876Z,36.93
2018-07-23T11:30:07.134Z,37.24
2018-07-23T11:31:07.391Z,37.34
2018-07-23T11:32:07.696Z,37.28
2018-07-23T11:33:07.911Z,36.68
2018-07-23T11:34:08.168Z,35.45
2018-07-23T11:35:08.427Z,35.34
2018-07-23T11:36:08.684Z,35.62
2018-07-23T11:37:08.943Z,36.22
2018-07-23T11:38:09.203Z,36.41
2018-07-23T11:39:09.460Z,35.04
2018-07-23T11:40:09.721Z,34.97
2018-07-23T11:41:09.979Z,35.37
2018-07-23T11:42:10.237Z,35.10
2018-07-23T11:43:10.498Z,34.56
2018-07-23T11:44:10.755Z,34.13
2018-07-23T11:45:11.064Z,33.84
2018-07-23T11:46:24.423Z,33.97
2018-07-23T11:47:11.547Z,34.52
2018-07-23T11:48:11.790Z,34.78
2018-07-23T11:49:12.047Z,35.14
2018-07-23T11:50:12.304Z,35.66
2018-07-23T11:51:12.563Z,35.63
2018-07-23T11:52:14.356Z,36.20
2018-07-23T11:53:13.074Z,36.43
2018-07-23T11:54:13.328Z,36.25
2018-07-23T11:55:13.586Z,36.59
2018-07-23T11:56:13.842Z,36.66
2018-07-23T11:57:14.094Z,37.25
2018-07-23T11:58:14.358Z,36.57
2018-07-23T11:59:14.615Z,36.81
2018-07-23T12:00:14.874Z,36.87
2018-07-23T12:01:15.132Z,37.13
2018-07-23T12:02:15.388Z,35.33
2018-07-23T12:03:15.650Z,33.69
2018-07-23T12:04:15.927Z,33.37
2018-07-23T12:05:16.163Z,33.82
2018-07-23T12:06:16.420Z,35.36
2018-07-23T12:07:16.678Z,35.55
2018-07-23T12:08:16.937Z,36.23
2018-07-23T12:09:17.194Z,37.02
2018-07-23T12:10:17.509Z,37.00
2018-07-23T12:11:17.790Z,37.32
2018-07-23T12:12:18.051Z,37.37
2018-07-23T12:13:18.305Z,37.69
2018-07-23T12:14:18.565Z,37.69
2018-07-23T12:15:18.826Z,37.39
2018-07-23T12:16:19.085Z,36.59
2018-07-23T12:17:19.433Z,36.19
2018-07-23T12:18:19.602Z,36.28
2018-07-23T12:19:19.863Z,35.44
2018-07-23T12:20:20.119Z,34.88
2018-07-23T12:21:20.378Z,34.92
2018-07-23T12:22:20.635Z,35.25
2018-07-23T12:23:20.890Z,35.66
2018-07-23T12:24:21.150Z,36.03
2018-07-23T12:25:21.409Z,35.36
2018-07-23T12:26:21.667Z,35.34
2018-07-23T12:27:21.925Z,35.62
2018-07-23T12:28:22.185Z,36.50
2018-07-23T12:29:22.438Z,36.09
2018-07-23T12:30:22.695Z,35.75
2018-07-23T12:31:22.953Z,35.97
2018-07-23T12:32:23.250Z,35.85
2018-07-23T12:33:23.466Z,35.89
2018-07-23T12:34:23.723Z,36.29
2018-07-23T12:35:23.984Z,37.06
2018-07-23T12:36:24.239Z,36.68
2018-07-23T12:37:24.494Z,36.88
2018-07-23T12:38:24.751Z,35.81
2018-07-23T12:39:25.060Z,34.78
2018-07-23T12:40:26.681Z,34.37
2018-07-23T12:41:25.584Z,34.17
2018-07-23T12:42:25.845Z,33.41
2018-07-23T12:43:26.104Z,32.78
2018-07-23T12:44:28.543Z,32.45
2018-07-23T12:45:26.819Z,33.29
2018-07-23T12:46:27.608Z,34.61
2018-07-23T12:47:28.971Z,35.25
2018-07-23T12:48:28.010Z,35.92
2018-07-23T12:49:28.343Z,36.23
2018-07-23T12:50:29.710Z,36.49
2018-07-23T12:51:29.158Z,36.09
2018-07-23T12:52:29.654Z,35.66
2018-07-23T12:53:30.032Z,35.15
2018-07-23T12:54:30.344Z,35.11
2018-07-23T12:55:30.423Z,35.66